Time;durP1;ratioP1;P1;durP2;ratioP2;P2;SDS_P1;SDS_P2;PMS_P1;PMS_P2;Temp;Humidity;BMP_temperature;BMP_pressure;BME280_temperature;BME280_humidity;BME280_pressure;Samples;Min_cycle;Max_cycle;Signal;HPM_P1;HPM_P2
2022/11/03 00:01:31;;;;;;;26.08;3.88;;;8.20;99.90;;;;;;5055089;28;20381;-71
2022/11/03 00:03:57;;;;;;;25.80;3.65;;;8.20;99.90;;;;;;5052867;28;20103;-71
2022/11/03 00:06:22;;;;;;;22.58;4.18;;;8.20;99.90;;;;;;5054731;28;20020;-71
2022/11/03 00:08:48;;;;;;;18.48;3.72;;;8.20;99.90;;;;;;5054770;28;20052;-71
2022/11/03 00:11:14;;;;;;;25.20;4.80;;;8.20;99.90;;;;;;5054927;28;20109;-71
2022/11/03 00:13:41;;;;;;;16.58;4.07;;;8.20;99.90;;;;;;5057065;28;20114;-71
2022/11/03 00:16:09;;;;;;;26.85;4.50;;;8.20;99.90;;;;;;5054305;28;20063;-71
2022/11/03 00:18:35;;;;;;;27.98;4.18;;;8.30;99.90;;;;;;5054494;28;20543;-71
2022/11/03 00:21:03;;;;;;;20.50;4.57;;;8.30;99.90;;;;;;5054329;28;20064;-71
2022/11/03 00:23:31;;;;;;;26.27;3.78;;;8.30;99.90;;;;;;5054623;28;20494;-71
2022/11/03 00:26:19;;;;;;;25.95;4.32;;;8.30;99.90;;;;;;5054145;28;20060;-71
2022/11/03 00:28:46;;;;;;;27.00;3.97;;;8.30;99.90;;;;;;5054167;28;20032;-70
2022/11/03 00:31:14;;;;;;;28.38;4.47;;;8.30;99.90;;;;;;5054860;28;20021;-71
2022/11/03 00:33:41;;;;;;;20.23;3.53;;;8.40;99.90;;;;;;5054064;28;20103;-71
2022/11/03 00:36:10;;;;;;;31.33;4.22;;;8.40;99.90;;;;;;5054203;28;20037;-71
2022/11/03 00:38:36;;;;;;;22.45;4.07;;;8.40;99.90;;;;;;5054121;28;20033;-71
2022/11/03 00:41:04;;;;;;;25.00;4.13;;;8.50;99.90;;;;;;5055515;28;20017;-71
2022/11/03 00:43:32;;;;;;;26.23;5.50;;;8.50;99.90;;;;;;5054251;28;20485;-71
2022/11/03 00:45:58;;;;;;;26.50;5.15;;;8.50;99.90;;;;;;5054471;28;20029;-71
2022/11/03 00:48:29;;;;;;;25.67;5.80;;;8.60;99.90;;;;;;5054473;28;20096;-70
2022/11/03 00:51:13;;;;;;;24.05;5.15;;;8.60;99.90;;;;;;5069561;28;20013;-71
2022/11/03 00:53:42;;;;;;;16.55;4.65;;;8.60;99.90;;;;;;5071653;28;20052;-71
2022/11/03 00:56:15;;;;;;;26.15;6.20;;;8.60;99.90;;;;;;5065632;28;20075;-71
2022/11/03 00:58:42;;;;;;;28.58;3.88;;;8.60;99.90;;;;;;5054301;28;20036;-71
2022/11/03 01:01:11;;;;;;;17.17;3.72;;;8.60;99.90;;;;;;5057506;28;20111;-71
2022/11/03 01:03:39;;;;;;;27.58;5.00;;;8.60;99.90;;;;;;5073979;28;20052;-71
2022/11/03 01:08:54;;;;;;;25.20;4.18;;;8.70;99.90;;;;;;5053755;28;20024;-71
2022/11/03 01:14:12;;;;;;;23.60;4.63;;;8.80;99.90;;;;;;5053870;28;20031;-71
2022/11/03 01:16:37;;;;;;;20.17;4.57;;;8.80;99.90;;;;;;5061622;28;20103;-71
2022/11/03 01:19:03;;;;;;;23.63;4.10;;;8.80;99.90;;;;;;5050429;28;20075;-70
2022/11/03 01:21:29;;;;;;;28.80;4.78;;;8.80;99.90;;;;;;5056070;28;20031;-71
2022/11/03 01:23:54;;;;;;;30.13;5.20;;;8.80;99.90;;;;;;5069739;28;20036;-70
2022/11/03 01:26:20;;;;;;;29.08;5.88;;;8.80;99.90;;;;;;5073507;28;20039;-71
2022/11/03 01:28:47;;;;;;;23.38;3.38;;;8.80;99.90;;;;;;5058759;28;20492;-71
2022/11/03 01:31:22;;;;;;;19.73;4.03;;;8.80;99.90;;;;;;5053442;28;20025;-71
2022/11/03 01:33:49;;;;;;;25.58;3.85;;;8.80;99.90;;;;;;5053077;28;20020;-71
2022/11/03 01:36:15;;;;;;;17.02;3.38;;;8.80;99.90;;;;;;5053356;28;20029;-71
2022/11/03 01:38:42;;;;;;;20.05;4.32;;;8.80;99.90;;;;;;5053641;28;20499;-71
2022/11/03 01:41:11;;;;;;;19.90;3.72;;;8.80;99.90;;;;;;5054628;28;20025;-71
2022/11/03 01:43:38;;;;;;;27.65;3.78;;;8.80;99.90;;;;;;5073266;28;20039;-71
2022/11/03 01:46:18;;;;;;;27.08;5.45;;;8.90;99.90;;;;;;5071537;28;20384;-71
2022/11/03 01:48:50;;;;;;;22.23;3.95;;;8.90;99.90;;;;;;5074387;28;20035;-71
2022/11/03 01:51:21;;;;;;;21.75;3.97;;;8.90;99.90;;;;;;5074531;28;20103;-71
2022/11/03 01:53:49;;;;;;;33.83;3.83;;;8.90;99.90;;;;;;5056246;28;20025;-71
2022/11/03 01:56:15;;;;;;;26.52;4.05;;;8.90;99.90;;;;;;5066054;28;20032;-71
2022/11/03 01:58:44;;;;;;;43.55;5.55;;;8.90;99.90;;;;;;5073459;28;20025;-71
2022/11/03 02:01:10;;;;;;;18.50;3.58;;;8.90;99.90;;;;;;5073042;28;20569;-71
2022/11/03 02:03:45;;;;;;;18.75;4.18;;;8.90;99.90;;;;;;5072952;28;20039;-70
2022/11/03 02:06:11;;;;;;;22.67;3.38;;;8.80;99.90;;;;;;5071129;28;20488;-70
2022/11/03 02:08:47;;;;;;;23.63;3.60;;;8.80;99.90;;;;;;5075565;28;20035;-71
2022/11/03 02:13:57;;;;;;;17.25;3.05;;;8.90;99.90;;;;;;5068522;28;20094;-70
2022/11/03 02:16:24;;;;;;;16.77;4.10;;;8.80;99.90;;;;;;5058607;28;20024;-71
2022/11/03 02:18:52;;;;;;;31.20;4.05;;;8.80;99.90;;;;;;5056018;28;20029;-70
2022/11/03 02:21:34;;;;;;;20.10;3.63;;;8.80;99.90;;;;;;5056676;28;20064;-71
2022/11/03 02:24:14;;;;;;;15.10;3.13;;;8.80;99.90;;;;;;5056808;28;20037;-71
2022/11/03 02:26:41;;;;;;;19.80;3.67;;;8.90;99.90;;;;;;5038552;28;20535;-71
2022/11/03 02:29:06;;;;;;;20.23;4.15;;;8.80;99.90;;;;;;5058502;28;20021;-71
2022/11/03 02:31:43;;;;;;;22.83;4.45;;;8.80;99.90;;;;;;5056743;28;20384;-71
2022/11/03 02:34:18;;;;;;;17.48;3.47;;;8.80;99.90;;;;;;5056143;28;20025;-71
2022/11/03 02:36:58;;;;;;;19.13;3.90;;;8.80;99.90;;;;;;5056450;28;20489;-71
2022/11/03 02:39:35;;;;;;;26.75;3.60;;;8.80;99.90;;;;;;5056638;28;20079;-71
2022/11/03 02:42:03;;;;;;;17.40;3.30;;;8.80;99.90;;;;;;5056534;28;20029;-70
2022/11/03 02:44:31;;;;;;;20.08;3.65;;;8.80;99.90;;;;;;5056375;28;20053;-71
2022/11/03 02:47:02;;;;;;;26.38;3.90;;;8.80;99.90;;;;;;5055718;28;20480;-70
2022/11/03 02:49:28;;;;;;;21.58;3.45;;;8.80;99.90;;;;;;5060152;28;20029;-71
2022/11/03 02:52:01;;;;;;;19.50;4.00;;;8.70;99.90;;;;;;5076017;28;20408;-71
2022/11/03 02:54:42;;;;;;;14.30;3.60;;;8.70;99.90;;;;;;5064396;28;20384;-70
2022/11/03 02:57:28;;;;;;;17.75;4.43;;;8.70;99.90;;;;;;5055305;28;20028;-70
2022/11/03 03:00:01;;;;;;;17.80;3.75;;;8.70;99.90;;;;;;5060905;28;20060;-70
2022/11/03 03:02:37;;;;;;;25.08;3.67;;;8.70;99.90;;;;;;5066694;28;20168;-70
2022/11/03 03:05:07;;;;;;;24.88;3.35;;;8.70;99.90;;;;;;5055277;28;20044;-70
2022/11/03 03:07:37;;;;;;;28.88;4.05;;;8.60;99.90;;;;;;5056121;28;20021;-70
2022/11/03 03:10:16;;;;;;;20.83;4.65;;;8.60;99.90;;;;;;5056042;28;20056;-71
2022/11/03 03:12:46;;;;;;;16.27;3.30;;;8.60;99.90;;;;;;5056055;28;20021;-71
2022/11/03 03:15:13;;;;;;;24.13;4.72;;;8.60;99.90;;;;;;5056232;28;20155;-70
2022/11/03 03:18:08;;;;;;;25.40;4.00;;;8.60;99.90;;;;;;5055152;28;20025;-70
2022/11/03 03:20:59;;;;;;;18.92;5.20;;;8.60;99.90;;;;;;5054322;28;20029;-70
2022/11/03 03:23:29;;;;;;;23.20;4.10;;;8.60;99.90;;;;;;5055460;28;20091;-70
2022/11/03 03:26:06;;;;;;;17.00;2.85;;;8.60;99.90;;;;;;5055409;28;20093;-70
2022/11/03 03:28:42;;;;;;;21.60;3.55;;;8.60;99.90;;;;;;5055752;28;20021;-71
2022/11/03 03:31:12;;;;;;;19.30;4.07;;;8.60;99.90;;;;;;5055137;28;20024;-71
2022/11/03 03:33:38;;;;;;;28.20;4.15;;;8.60;99.90;;;;;;5055582;28;20021;-71
2022/11/03 03:36:08;;;;;;;18.65;3.13;;;8.60;99.90;;;;;;5055644;28;20488;-71
2022/11/03 03:38:40;;;;;;;25.80;3.70;;;8.60;99.90;;;;;;5053537;28;20029;-70
2022/11/03 03:41:09;;;;;;;25.70;4.15;;;8.60;99.90;;;;;;5055539;28;20380;-71
2022/11/03 03:43:35;;;;;;;23.92;3.67;;;8.60;99.90;;;;;;5055316;28;20388;-70
2022/11/03 03:46:06;;;;;;;35.47;3.95;;;8.60;99.90;;;;;;5055306;28;20028;-71
2022/11/03 03:48:31;;;;;;;17.20;4.13;;;8.60;99.90;;;;;;5055578;28;20025;-70
2022/11/03 03:50:59;;;;;;;24.35;3.83;;;8.60;99.90;;;;;;5055549;28;20384;-71
2022/11/03 03:53:28;;;;;;;19.98;3.65;;;8.60;99.90;;;;;;5054522;28;20033;-70
2022/11/03 03:55:54;;;;;;;23.70;3.95;;;8.60;99.90;;;;;;5054797;28;20017;-71
2022/11/03 03:58:19;;;;;;;21.52;3.45;;;8.60;99.90;;;;;;5054846;28;20033;-71
2022/11/03 04:00:45;;;;;;;22.88;3.88;;;8.50;99.90;;;;;;5055059;28;20048;-71
2022/11/03 04:03:18;;;;;;;20.38;5.20;;;8.50;99.90;;;;;;5054935;28;20373;-71
2022/11/03 04:05:45;;;;;;;16.88;2.45;;;8.50;99.90;;;;;;5054009;28;20079;-70
2022/11/03 04:08:12;;;;;;;13.57;3.53;;;8.40;99.90;;;;;;5054964;28;20400;-71
2022/11/03 04:10:37;;;;;;;19.45;4.13;;;8.40;99.90;;;;;;5055255;28;20021;-70
2022/11/03 04:23:49;;;;;;;26.70;4.22;;;8.40;99.90;;;;;;5054391;28;20049;-69
2022/11/03 04:26:21;;;;;;;29.48;4.35;;;8.40;99.90;;;;;;5094456;23;20055;-67
2022/11/03 04:28:48;;;;;;;15.13;3.30;;;8.30;99.90;;;;;;5073361;28;20492;-67
2022/11/03 04:31:17;;;;;;;28.17;4.22;;;8.40;99.90;;;;;;5073617;28;20016;-68
2022/11/03 04:33:43;;;;;;;25.75;4.18;;;8.30;99.90;;;;;;5074067;28;20020;-67
2022/11/03 04:36:12;;;;;;;23.17;3.53;;;8.30;99.90;;;;;;5073982;28;20028;-68
2022/11/03 04:38:38;;;;;;;17.58;5.22;;;8.40;99.90;;;;;;5073713;28;20025;-67
2022/11/03 04:41:14;;;;;;;18.42;3.10;;;8.30;99.90;;;;;;5073356;28;20032;-67
2022/11/03 04:43:39;;;;;;;25.35;4.15;;;8.40;99.90;;;;;;5073921;28;20024;-67
2022/11/03 04:46:08;;;;;;;21.27;4.57;;;8.40;99.90;;;;;;5073587;28;20097;-67
2022/11/03 04:48:33;;;;;;;17.25;3.75;;;8.40;99.90;;;;;;5073616;28;20043;-67
2022/11/03 04:51:01;;;;;;;22.40;4.20;;;8.30;99.90;;;;;;5074061;28;20472;-67
2022/11/03 04:53:30;;;;;;;20.60;4.28;;;8.30;99.90;;;;;;5073507;28;20020;-67
2022/11/03 04:55:56;;;;;;;29.00;6.22;;;8.30;99.90;;;;;;5073118;28;20028;-67
2022/11/03 04:58:27;;;;;;;21.40;3.92;;;8.40;99.90;;;;;;5073662;28;20025;-67
2022/11/03 05:00:56;;;;;;;28.55;3.58;;;8.40;99.90;;;;;;5073999;28;20037;-68
2022/11/03 05:03:49;;;;;;;14.88;3.75;;;8.40;99.90;;;;;;5072994;28;20030;-67
2022/11/03 05:06:15;;;;;;;20.52;3.90;;;8.40;99.90;;;;;;5071125;28;20516;-67
2022/11/03 05:08:44;;;;;;;21.60;3.67;;;8.50;99.90;;;;;;5073572;28;20024;-67
2022/11/03 05:11:27;;;;;;;37.25;5.05;;;8.40;99.90;;;;;;5072860;28;20021;-66
2022/11/03 05:13:53;;;;;;;21.30;3.40;;;8.40;99.90;;;;;;5073280;28;20020;-67
2022/11/03 05:16:18;;;;;;;21.70;3.35;;;8.40;99.90;;;;;;5073437;28;20093;-67
2022/11/03 05:18:47;;;;;;;16.27;3.78;;;8.40;99.90;;;;;;5073481;28;20025;-67
2022/11/03 05:21:17;;;;;;;24.90;4.00;;;8.50;99.90;;;;;;5073154;28;20036;-67
2022/11/03 05:24:11;;;;;;;23.77;3.72;;;8.60;99.90;;;;;;5072958;28;20025;-67
2022/11/03 05:26:37;;;;;;;26.98;3.25;;;8.70;99.90;;;;;;5070012;28;20052;-67
2022/11/03 05:29:07;;;;;;;14.35;3.63;;;8.80;99.90;;;;;;5073089;28;20561;-68
2022/11/03 05:31:35;;;;;;;28.40;4.25;;;8.80;99.90;;;;;;5073114;28;20039;-67
2022/11/03 05:34:12;;;;;;;18.75;4.30;;;8.80;99.90;;;;;;5073045;28;20098;-67
2022/11/03 05:36:38;;;;;;;24.23;5.03;;;8.80;99.90;;;;;;5072958;28;20119;-67
2022/11/03 05:39:25;;;;;;;18.40;3.45;;;8.90;99.90;;;;;;5073255;28;20032;-67
2022/11/03 05:41:51;;;;;;;24.15;4.10;;;9.00;99.90;;;;;;5073277;28;20480;-67
2022/11/03 05:44:32;;;;;;;22.80;3.50;;;9.00;99.90;;;;;;5076323;28;20066;-67
2022/11/03 05:47:00;;;;;;;29.70;4.45;;;9.00;99.90;;;;;;5076754;28;20021;-67
2022/11/03 05:49:27;;;;;;;11.48;3.13;;;9.00;99.90;;;;;;5077024;28;20021;-67
2022/11/03 05:51:53;;;;;;;21.52;4.10;;;9.10;99.90;;;;;;5076907;28;20047;-68
2022/11/03 05:54:22;;;;;;;15.45;3.67;;;9.10;99.90;;;;;;5076797;28;20028;-67
2022/11/03 05:56:47;;;;;;;20.10;3.85;;;9.20;99.90;;;;;;5077099;28;20683;-67
2022/11/03 05:59:18;;;;;;;22.67;3.45;;;9.20;99.90;;;;;;5077059;28;20040;-68
2022/11/03 06:01:43;;;;;;;18.80;3.30;;;9.20;99.90;;;;;;5076235;28;20020;-68
2022/11/03 06:04:20;;;;;;;14.25;2.90;;;9.20;99.90;;;;;;5077094;28;20039;-67
2022/11/03 06:06:51;;;;;;;21.02;3.88;;;9.20;99.90;;;;;;5077169;28;20095;-67
2022/11/03 06:09:20;;;;;;;16.63;3.17;;;9.20;99.90;;;;;;5076599;28;20551;-67
2022/11/03 06:11:46;;;;;;;29.13;5.10;;;9.20;99.90;;;;;;5076266;28;20033;-67
2022/11/03 06:14:24;;;;;;;21.63;2.90;;;9.30;99.90;;;;;;5076419;28;20032;-67
2022/11/03 06:17:04;;;;;;;21.77;3.83;;;9.30;99.90;;;;;;5076444;28;20102;-67
2022/11/03 06:19:43;;;;;;;17.80;4.38;;;9.30;99.90;;;;;;5076643;28;20045;-67
2022/11/03 06:22:23;;;;;;;18.85;4.00;;;9.20;99.90;;;;;;5076310;28;20433;-67
2022/11/03 06:24:50;;;;;;;32.63;3.90;;;9.30;99.90;;;;;;5075600;28;20127;-67
2022/11/03 06:27:20;;;;;;;24.60;4.35;;;9.30;99.90;;;;;;5076236;28;20059;-67
2022/11/03 06:29:54;;;;;;;16.23;4.15;;;9.30;99.90;;;;;;5076501;28;20417;-68
2022/11/03 06:32:20;;;;;;;16.98;3.95;;;9.30;99.90;;;;;;5076436;28;20040;-68
2022/11/03 06:34:59;;;;;;;16.98;3.15;;;9.40;99.90;;;;;;5076007;28;20033;-67
2022/11/03 06:37:29;;;;;;;15.77;3.97;;;9.40;99.90;;;;;;5075792;28;20056;-67
2022/11/03 06:40:01;;;;;;;13.57;3.60;;;9.40;99.90;;;;;;5076290;28;20033;-67
2022/11/03 06:42:31;;;;;;;23.55;3.85;;;9.40;99.90;;;;;;5075826;28;20039;-67
2022/11/03 06:44:57;;;;;;;15.65;3.40;;;9.40;99.90;;;;;;5076373;28;20077;-67
2022/11/03 06:47:25;;;;;;;16.25;3.22;;;9.40;99.90;;;;;;5075651;28;20024;-68
2022/11/03 06:49:52;;;;;;;20.88;4.15;;;9.40;99.90;;;;;;5076094;28;20396;-67
2022/11/03 06:52:28;;;;;;;16.35;3.03;;;9.50;99.90;;;;;;5075819;28;20476;-67
2022/11/03 06:55:21;;;;;;;24.17;2.80;;;9.50;99.90;;;;;;5075325;28;20108;-67
2022/11/03 06:57:47;;;;;;;21.92;3.78;;;9.50;99.90;;;;;;5075359;28;20111;-67
2022/11/03 07:00:25;;;;;;;30.15;3.53;;;9.50;99.90;;;;;;5075891;28;20028;-67
2022/11/03 07:03:09;;;;;;;25.70;3.30;;;9.60;99.90;;;;;;5075606;28;20103;-67
2022/11/03 07:05:36;;;;;;;21.80;3.30;;;9.60;99.90;;;;;;5075710;28;20365;-67
2022/11/03 07:08:23;;;;;;;27.65;3.67;;;9.60;99.90;;;;;;5075516;28;20020;-67
2022/11/03 07:10:55;;;;;;;21.42;3.30;;;9.60;99.90;;;;;;5074397;28;20048;-67
2022/11/03 07:13:23;;;;;;;22.55;2.97;;;9.60;99.90;;;;;;5075449;28;20025;-67
2022/11/03 07:15:50;;;;;;;19.67;3.42;;;9.60;99.90;;;;;;5075532;28;20032;-67
2022/11/03 07:18:22;;;;;;;21.33;3.60;;;9.60;99.90;;;;;;5075589;28;20020;-67
2022/11/03 07:20:48;;;;;;;16.35;3.67;;;9.60;99.90;;;;;;5075045;28;20051;-67
2022/11/03 07:23:18;;;;;;;29.50;4.13;;;9.60;99.90;;;;;;5075387;28;20039;-67
2022/11/03 07:25:49;;;;;;;13.05;2.75;;;9.60;99.90;;;;;;5075150;28;20028;-67
2022/11/03 07:28:14;;;;;;;17.38;3.50;;;9.70;99.90;;;;;;5071518;28;20082;-66
2022/11/03 07:30:40;;;;;;;14.68;3.10;;;9.70;99.90;;;;;;5065967;28;20427;-67
2022/11/03 07:33:21;;;;;;;22.17;4.30;;;9.70;99.90;;;;;;5055019;28;20025;-67
2022/11/03 07:35:47;;;;;;;21.60;3.88;;;9.70;99.90;;;;;;5067603;28;20052;-67
2022/11/03 07:38:19;;;;;;;24.02;3.55;;;9.70;99.90;;;;;;5074460;28;20483;-67
2022/11/03 07:40:45;;;;;;;24.75;3.45;;;9.70;99.90;;;;;;5075192;28;20028;-67
2022/11/03 07:43:16;;;;;;;26.88;4.07;;;9.70;99.90;;;;;;5069784;28;20029;-67
2022/11/03 07:45:48;;;;;;;18.08;3.67;;;9.70;99.90;;;;;;5064979;28;20099;-68
2022/11/03 07:48:26;;;;;;;16.40;3.65;;;9.70;99.90;;;;;;5074354;28;20496;-67
2022/11/03 07:50:58;;;;;;;21.88;3.78;;;9.60;99.90;;;;;;5074672;28;20024;-68
2022/11/03 07:54:01;;;;;;;20.08;3.72;;;9.60;99.90;;;;;;5074840;28;20052;-67
2022/11/03 07:56:34;;;;;;;22.20;3.70;;;9.70;99.90;;;;;;5063586;28;20097;-68
2022/11/03 07:59:10;;;;;;;18.93;3.43;;;9.60;99.90;;;;;;5054667;28;20025;-68
2022/11/03 08:01:47;;;;;;;19.48;3.17;;;9.60;99.90;;;;;;5065642;28;20357;-68
2022/11/03 08:04:19;;;;;;;31.95;4.63;;;9.60;99.90;;;;;;5066258;28;20022;-68
2022/11/03 08:06:44;;;;;;;15.40;3.47;;;9.60;99.90;;;;;;5069689;28;20032;-68
2022/11/03 08:09:10;;;;;;;18.35;3.10;;;9.70;99.90;;;;;;5073765;28;20021;-68
2022/11/03 08:11:35;;;;;;;22.63;3.35;;;9.60;99.90;;;;;;5074097;28;20020;-68
2022/11/03 08:14:01;;;;;;;19.50;3.60;;;9.70;99.90;;;;;;5074278;28;20387;-68
2022/11/03 08:16:26;;;;;;;12.48;2.40;;;9.70;99.90;;;;;;5069220;28;20025;-68
2022/11/03 08:18:52;;;;;;;21.88;3.60;;;9.70;99.90;;;;;;5054147;28;20029;-68
2022/11/03 08:21:17;;;;;;;26.55;4.50;;;9.70;99.90;;;;;;5054574;28;20385;-68
2022/11/03 08:23:43;;;;;;;29.65;3.67;;;9.70;99.90;;;;;;5054558;28;20543;-68
2022/11/03 08:26:08;;;;;;;17.20;3.90;;;9.70;99.90;;;;;;5053229;28;20420;-68
2022/11/03 08:28:34;;;;;;;21.40;4.22;;;9.80;99.90;;;;;;5054283;28;20087;-68
2022/11/03 08:31:03;;;;;;;18.70;3.42;;;9.80;99.90;;;;;;5052695;28;20017;-68
2022/11/03 08:33:33;;;;;;;19.98;3.72;;;9.80;99.90;;;;;;5058577;28;20100;-68
2022/11/03 08:36:00;;;;;;;26.00;4.13;;;9.80;99.90;;;;;;5073706;28;20024;-69
2022/11/03 08:38:26;;;;;;;17.58;3.85;;;9.90;99.90;;;;;;5073474;28;20030;-68
2022/11/03 08:40:53;;;;;;;25.10;4.30;;;9.90;99.90;;;;;;5071698;28;20411;-68
2022/11/03 08:43:18;;;;;;;23.70;3.72;;;10.00;99.90;;;;;;5053574;28;20086;-68
2022/11/03 08:45:44;;;;;;;19.60;2.92;;;10.00;99.90;;;;;;5072144;28;20032;-68
2022/11/03 08:48:10;;;;;;;21.23;3.47;;;10.10;99.90;;;;;;5073768;28;20020;-68
2022/11/03 08:50:36;;;;;;;25.15;4.47;;;10.10;99.90;;;;;;5073561;28;20025;-68
2022/11/03 08:53:01;;;;;;;19.67;3.58;;;10.20;99.90;;;;;;5071015;28;20025;-67
2022/11/03 08:55:27;;;;;;;19.13;3.53;;;10.30;99.90;;;;;;5053991;28;20036;-68
2022/11/03 08:57:52;;;;;;;21.85;3.45;;;10.30;99.90;;;;;;5048159;28;20029;-68
2022/11/03 09:00:18;;;;;;;12.73;3.15;;;10.40;99.90;;;;;;5073410;28;20032;-68
2022/11/03 09:02:44;;;;;;;22.55;4.35;;;10.50;99.90;;;;;;5073670;28;20033;-68
2022/11/03 09:05:11;;;;;;;23.02;4.45;;;10.60;99.90;;;;;;5062335;28;20029;-67
2022/11/03 09:07:38;;;;;;;15.93;3.45;;;10.70;99.90;;;;;;5064761;28;20103;-67
2022/11/03 09:10:06;;;;;;;19.27;3.53;;;10.80;99.90;;;;;;5067860;28;20118;-67
2022/11/03 09:12:31;;;;;;;23.10;3.63;;;10.90;99.90;;;;;;5072375;28;20035;-67
2022/11/03 09:14:57;;;;;;;26.50;3.38;;;10.90;99.90;;;;;;5070695;28;20024;-67
2022/11/03 09:17:22;;;;;;;16.77;3.45;;;11.10;99.90;;;;;;5061676;28;20116;-67
2022/11/03 09:19:48;;;;;;;21.48;3.72;;;11.00;99.90;;;;;;5058772;28;20116;-67
2022/11/03 09:22:13;;;;;;;25.88;4.22;;;11.00;99.90;;;;;;5070757;28;20024;-67
2022/11/03 09:24:39;;;;;;;26.58;3.78;;;11.20;99.90;;;;;;5072173;28;20502;-67
2022/11/03 09:27:04;;;;;;;19.70;3.50;;;11.30;99.90;;;;;;5070867;28;20033;-67
2022/11/03 09:29:30;;;;;;;20.55;3.70;;;11.50;99.90;;;;;;5072253;28;20028;-68
2022/11/03 09:31:56;;;;;;;16.38;3.70;;;11.50;99.90;;;;;;5071063;28;20082;-67
2022/11/03 09:34:21;;;;;;;19.80;3.65;;;11.50;99.90;;;;;;5061065;28;20089;-68
2022/11/03 09:36:47;;;;;;;23.45;3.70;;;11.60;99.90;;;;;;5059183;28;20025;-68
2022/11/03 09:39:12;;;;;;;20.08;3.15;;;11.70;99.90;;;;;;5062215;28;20013;-68
2022/11/03 09:41:38;;;;;;;28.05;4.53;;;11.70;99.90;;;;;;5072328;28;20441;-68
2022/11/03 09:44:04;;;;;;;25.65;4.80;;;11.80;99.90;;;;;;5060839;28;20049;-68
2022/11/03 09:46:30;;;;;;;23.13;3.47;;;11.80;99.90;;;;;;5071737;28;20106;-68
2022/11/03 09:48:57;;;;;;;23.90;3.67;;;11.80;99.90;;;;;;5059592;28;20056;-67
2022/11/03 09:51:24;;;;;;;15.52;3.17;;;11.80;99.90;;;;;;5072104;28;20024;-68
2022/11/03 09:53:50;;;;;;;25.83;3.78;;;11.80;99.90;;;;;;5069903;28;20029;-68
2022/11/03 09:56:20;;;;;;;15.32;3.38;;;11.80;99.90;;;;;;5072726;28;20031;-68
2022/11/03 09:58:45;;;;;;;15.43;3.97;;;11.90;99.90;;;;;;5053626;28;20025;-68
2022/11/03 10:01:11;;;;;;;21.27;3.30;;;11.90;99.90;;;;;;5066499;28;20020;-67
2022/11/03 10:03:38;;;;;;;17.25;3.10;;;12.00;99.90;;;;;;5072290;28;20075;-68
2022/11/03 10:06:04;;;;;;;14.90;3.03;;;12.10;99.90;;;;;;5067920;28;20041;-68
2022/11/03 10:08:31;;;;;;;28.08;3.42;;;12.10;99.90;;;;;;5064780;28;20021;-68
2022/11/03 10:10:57;;;;;;;28.08;4.10;;;12.10;99.90;;;;;;5053773;28;20029;-68
2022/11/03 10:13:33;;;;;;;17.48;3.35;;;12.10;99.90;;;;;;5052610;28;20098;-68
2022/11/03 10:16:05;;;;;;;17.27;3.28;;;12.10;99.90;;;;;;5052013;28;20025;-67
2022/11/03 10:18:32;;;;;;;17.75;3.47;;;12.10;99.90;;;;;;5069386;28;20025;-68
2022/11/03 10:21:05;;;;;;;20.17;4.68;;;12.10;99.90;;;;;;5072521;28;20032;-68
2022/11/03 10:23:31;;;;;;;16.92;3.47;;;12.20;99.90;;;;;;5052650;28;20029;-68
2022/11/03 10:26:17;;;;;;;17.98;3.33;;;12.20;99.90;;;;;;5052371;28;20094;-68
2022/11/03 10:29:03;;;;;;;23.42;3.85;;;12.20;99.90;;;;;;5053561;28;20108;-68
2022/11/03 10:31:40;;;;;;;15.27;2.85;;;12.30;99.90;;;;;;5056296;28;20358;-68
2022/11/03 10:34:36;;;;;;;13.77;2.70;;;12.30;99.90;;;;;;5056532;28;20025;-68
2022/11/03 10:37:27;;;;;;;20.45;3.20;;;12.30;99.90;;;;;;5056441;28;20056;-68
2022/11/03 10:39:57;;;;;;;20.40;3.53;;;12.30;99.90;;;;;;5055699;28;20086;-68
2022/11/03 10:42:25;;;;;;;17.73;3.13;;;12.30;99.90;;;;;;5055994;28;20033;-68
2022/11/03 10:44:53;;;;;;;13.02;4.35;;;12.40;99.90;;;;;;5056176;28;20056;-68
2022/11/03 10:47:23;;;;;;;16.05;3.20;;;12.40;99.90;;;;;;5055955;28;20021;-68
2022/11/03 10:49:48;;;;;;;18.30;4.30;;;12.40;99.90;;;;;;5055623;28;20033;-68
2022/11/03 10:52:26;;;;;;;24.92;4.10;;;12.50;99.90;;;;;;5056154;28;20024;-68
2022/11/03 10:54:53;;;;;;;21.55;4.63;;;12.50;99.90;;;;;;5056075;28;20033;-68
2022/11/03 10:57:20;;;;;;;37.03;3.83;;;12.60;99.90;;;;;;5055967;28;20033;-68
2022/11/03 10:59:48;;;;;;;14.35;3.95;;;12.60;99.90;;;;;;5055756;28;20499;-68
2022/11/03 11:02:25;;;;;;;18.58;3.53;;;12.60;99.90;;;;;;5055208;28;20052;-69
2022/11/03 11:05:00;;;;;;;17.73;3.75;;;12.60;99.90;;;;;;5055769;28;20029;-68
2022/11/03 11:07:33;;;;;;;23.48;3.95;;;12.60;99.90;;;;;;5055701;28;20480;-68
2022/11/03 11:10:06;;;;;;;15.27;3.45;;;12.60;99.90;;;;;;5056763;28;20048;-68
2022/11/03 11:12:32;;;;;;;11.82;3.03;;;12.70;99.90;;;;;;5066806;28;20036;-68
2022/11/03 11:14:59;;;;;;;18.52;3.30;;;12.70;99.90;;;;;;5065204;28;20036;-68
2022/11/03 11:17:44;;;;;;;18.42;3.72;;;12.70;99.90;;;;;;5063854;28;20036;-68
2022/11/03 11:20:22;;;;;;;16.58;3.58;;;12.70;99.90;;;;;;5066663;28;20437;-68
2022/11/03 11:22:49;;;;;;;16.77;4.30;;;12.70;99.90;;;;;;5066257;28;20103;-68
2022/11/03 11:25:17;;;;;;;20.33;3.35;;;12.80;99.90;;;;;;5069378;28;20059;-69
2022/11/03 11:27:46;;;;;;;17.20;3.50;;;12.90;99.90;;;;;;5065488;28;20036;-69
2022/11/03 11:30:17;;;;;;;25.83;3.55;;;13.00;99.90;;;;;;5066013;28;20069;-69
2022/11/03 11:32:55;;;;;;;14.55;4.38;;;13.10;99.90;;;;;;5065848;28;20025;-69
2022/11/03 11:35:25;;;;;;;16.73;4.03;;;13.10;99.90;;;;;;5061352;28;20027;-69
2022/11/03 11:37:51;;;;;;;9.65;2.85;;;13.20;99.90;;;;;;5063525;28;20036;-69
2022/11/03 11:40:22;;;;;;;20.80;3.60;;;13.30;99.90;;;;;;5062110;28;20037;-69
2022/11/03 11:43:03;;;;;;;13.70;3.78;;;13.50;99.90;;;;;;5063620;28;20040;-69
2022/11/03 11:46:23;;;;;;;10.38;2.50;;;13.60;99.90;;;;;;5063200;28;20024;-69
2022/11/03 11:49:08;;;;;;;16.13;3.20;;;13.70;99.90;;;;;;4991486;28;20097;-69
2022/11/03 11:51:37;;;;;;;22.58;4.30;;;13.70;99.90;;;;;;5052613;28;20040;-70
2022/11/03 11:54:07;;;;;;;20.67;4.00;;;13.80;99.90;;;;;;5061569;28;20032;-70
2022/11/03 11:56:33;;;;;;;31.15;4.32;;;13.70;99.90;;;;;;5063414;28;20392;-70
2022/11/03 11:58:58;;;;;;;17.75;4.00;;;13.70;99.90;;;;;;5059188;28;20032;-70
2022/11/03 12:01:36;;;;;;;12.00;2.70;;;13.60;99.90;;;;;;5063765;28;20040;-70
2022/11/03 12:04:13;;;;;;;21.83;3.63;;;13.60;99.90;;;;;;5064170;28;20549;-68
2022/11/03 12:06:40;;;;;;;19.50;3.17;;;13.60;99.90;;;;;;5062589;28;20037;-68
2022/11/03 12:09:08;;;;;;;15.05;3.28;;;13.60;99.90;;;;;;5063040;28;20447;-68
2022/11/03 12:11:52;;;;;;;17.58;3.80;;;13.60;99.90;;;;;;5062792;28;20044;-68
2022/11/03 12:14:24;;;;;;;14.70;3.40;;;13.50;99.90;;;;;;5060827;28;20032;-68
2022/11/03 12:16:49;;;;;;;19.02;3.85;;;13.50;99.90;;;;;;5062145;28;20803;-67
2022/11/03 12:19:33;;;;;;;17.63;3.75;;;13.50;99.90;;;;;;5065506;28;20021;-67
2022/11/03 12:22:00;;;;;;;10.90;3.00;;;13.40;99.90;;;;;;5056633;28;20130;-68
2022/11/03 12:24:32;;;;;;;19.65;3.67;;;13.40;99.90;;;;;;5059404;28;20028;-68
2022/11/03 12:27:02;;;;;;;17.77;3.05;;;13.30;99.90;;;;;;5066033;28;20032;-67
2022/11/03 12:29:28;;;;;;;13.80;2.97;;;13.30;99.90;;;;;;5062552;28;20392;-68
2022/11/03 12:31:53;;;;;;;12.90;3.03;;;13.30;99.90;;;;;;5059190;28;20034;-68
2022/11/03 12:34:19;;;;;;;15.07;3.47;;;13.20;99.90;;;;;;5065253;28;20056;-68
2022/11/03 12:36:45;;;;;;;18.73;3.67;;;13.20;99.90;;;;;;5063944;28;20056;-68
2022/11/03 12:39:11;;;;;;;17.60;3.15;;;13.20;99.90;;;;;;5060789;28;20041;-68
2022/11/03 12:41:37;;;;;;;13.82;4.13;;;13.20;99.90;;;;;;5057778;28;20025;-68
2022/11/03 12:44:03;;;;;;;11.52;3.45;;;13.20;99.90;;;;;;5062721;28;20036;-68
2022/11/03 12:46:28;;;;;;;20.95;3.92;;;13.20;99.90;;;;;;5062124;28;20028;-68
2022/11/03 12:48:54;;;;;;;19.42;4.00;;;13.30;99.90;;;;;;5064751;28;20029;-68
2022/11/03 12:51:22;;;;;;;21.85;2.85;;;13.40;99.90;;;;;;5061144;28;20021;-68
2022/11/03 12:53:49;;;;;;;18.70;3.78;;;13.60;99.90;;;;;;5065619;28;20025;-68
2022/11/03 12:56:15;;;;;;;13.68;3.05;;;13.80;99.90;;;;;;5062271;28;20104;-68
2022/11/03 12:58:41;;;;;;;19.02;3.50;;;13.80;99.90;;;;;;5066922;28;20024;-68
2022/11/03 13:01:07;;;;;;;18.38;2.92;;;14.10;99.90;;;;;;5053313;28;20043;-68
2022/11/03 13:03:34;;;;;;;16.33;3.60;;;14.30;99.90;;;;;;5065441;28;20028;-68
2022/11/03 13:06:03;;;;;;;23.92;3.85;;;14.30;99.90;;;;;;5060692;28;20128;-68
2022/11/03 13:08:29;;;;;;;10.27;3.15;;;14.30;99.90;;;;;;5057662;28;20025;-68
2022/11/03 13:10:56;;;;;;;14.07;3.40;;;14.30;99.90;;;;;;5062694;28;20029;-68
2022/11/03 13:13:21;;;;;;;18.17;3.80;;;14.20;99.90;;;;;;5053255;28;20035;-68
2022/11/03 13:15:47;;;;;;;15.82;3.83;;;14.10;99.90;;;;;;5053039;28;20099;-68
2022/11/03 13:18:12;;;;;;;16.60;3.83;;;13.90;99.90;;;;;;5061163;28;20455;-68